sensor_id;sensor_type;location;lat;lon;timestamp;temperature;humidity
27200;DHT22;14714;48.106;11.546;2023-05-10T00:01:27;13.50;99.90
27200;DHT22;14714;48.106;11.546;2023-05-10T00:03:54;13.50;99.90
27200;DHT22;14714;48.106;11.546;2023-05-10T00:06:21;13.50;99.90
27200;DHT22;14714;48.106;11.546;2023-05-10T00:08:48;13.50;99.90
27200;DHT22;14714;48.106;11.546;2023-05-10T00:11:15;13.50;99.90
27200;DHT22;14714;48.106;11.546;2023-05-10T00:13:42;13.50;99.90
27200;DHT22;14714;48.106;11.546;2023-05-10T00:16:08;13.50;99.90
27200;DHT22;14714;48.106;11.546;2023-05-10T00:18:35;13.50;99.90
27200;DHT22;14714;48.106;11.546;2023-05-10T00:21:02;13.40;99.90
27200;DHT22;14714;48.106;11.546;2023-05-10T00:23:29;13.40;99.90
27200;DHT22;14714;48.106;11.546;2023-05-10T00:25:56;13.40;99.90
27200;DHT22;14714;48.106;11.546;2023-05-10T00:28:23;13.40;99.90
27200;DHT22;14714;48.106;11.546;2023-05-10T00:30:50;13.40;99.90
27200;DHT22;14714;48.106;11.546;2023-05-10T00:33:16;13.40;99.90
27200;DHT22;14714;48.106;11.546;2023-05-10T00:35:44;13.40;99.90
27200;DHT22;14714;48.106;11.546;2023-05-10T00:38:11;13.40;99.90
27200;DHT22;14714;48.106;11.546;2023-05-10T00:40:38;13.40;99.90
27200;DHT22;14714;48.106;11.546;2023-05-10T00:43:05;13.40;99.90
27200;DHT22;14714;48.106;11.546;2023-05-10T00:45:32;13.30;99.90
27200;DHT22;14714;48.106;11.546;2023-05-10T00:48:02;13.40;99.90
27200;DHT22;14714;48.106;11.546;2023-05-10T00:50:31;13.30;99.90
27200;DHT22;14714;48.106;11.546;2023-05-10T00:52:59;13.30;99.90
27200;DHT22;14714;48.106;11.546;2023-05-10T00:55:27;13.30;99.90
27200;DHT22;14714;48.106;11.546;2023-05-10T00:57:54;13.30;99.90
27200;DHT22;14714;48.106;11.546;2023-05-10T01:00:21;13.30;99.90
27200;DHT22;14714;48.106;11.546;2023-05-10T01:02:48;13.30;99.90
27200;DHT22;14714;48.106;11.546;2023-05-10T01:05:16;13.30;99.90
27200;DHT22;14714;48.106;11.546;2023-05-10T01:07:43;13.30;99.90
27200;DHT22;14714;48.106;11.546;2023-05-10T01:10:10;13.30;99.90
27200;DHT22;14714;48.106;11.546;2023-05-10T01:12:39;13.30;99.90
27200;DHT22;14714;48.106;11.546;2023-05-10T01:15:07;13.30;99.90
27200;DHT22;14714;48.106;11.546;2023-05-10T01:17:37;13.30;99.90
27200;DHT22;14714;48.106;11.546;2023-05-10T01:20:06;13.20;99.90
27200;DHT22;14714;48.106;11.546;2023-05-10T01:22:50;13.20;99.90
27200;DHT22;14714;48.106;11.546;2023-05-10T01:47:22;13.20;99.90
27200;DHT22;14714;48.106;11.546;2023-05-10T01:49:54;13.20;99.90
27200;DHT22;14714;48.106;11.546;2023-05-10T01:52:33;13.20;99.90
27200;DHT22;14714;48.106;11.546;2023-05-10T01:55:02;13.10;99.90
27200;DHT22;14714;48.106;11.546;2023-05-10T01:57:36;13.10;99.90
27200;DHT22;14714;48.106;11.546;2023-05-10T02:00:04;13.10;99.90
27200;DHT22;14714;48.106;11.546;2023-05-10T02:02:37;13.10;99.90
27200;DHT22;14714;48.106;11.546;2023-05-10T02:05:06;13.10;99.90
27200;DHT22;14714;48.106;11.546;2023-05-10T02:07:37;13.10;99.90
27200;DHT22;14714;48.106;11.546;2023-05-10T02:10:04;13.10;99.90
27200;DHT22;14714;48.106;11.546;2023-05-10T02:12:32;13.10;99.90
27200;DHT22;14714;48.106;11.546;2023-05-10T02:15:03;13.10;99.90
27200;DHT22;14714;48.106;11.546;2023-05-10T02:17:32;13.10;99.90
27200;DHT22;14714;48.106;11.546;2023-05-10T02:19:59;13.10;99.90
27200;DHT22;14714;48.106;11.546;2023-05-10T02:22:28;13.10;99.90
27200;DHT22;14714;48.106;11.546;2023-05-10T02:24:57;13.10;99.90
27200;DHT22;14714;48.106;11.546;2023-05-10T02:27:25;13.10;99.90
27200;DHT22;14714;48.106;11.546;2023-05-10T02:29:54;13.10;99.90
27200;DHT22;14714;48.106;11.546;2023-05-10T02:32:22;13.00;99.90
27200;DHT22;14714;48.106;11.546;2023-05-10T02:34:51;13.00;99.90
27200;DHT22;14714;48.106;11.546;2023-05-10T02:37:20;13.00;99.90
27200;DHT22;14714;48.106;11.546;2023-05-10T02:39:49;13.00;99.90
27200;DHT22;14714;48.106;11.546;2023-05-10T02:42:19;13.00;99.90
27200;DHT22;14714;48.106;11.546;2023-05-10T02:44:48;13.00;99.90
27200;DHT22;14714;48.106;11.546;2023-05-10T02:47:16;13.00;99.90
27200;DHT22;14714;48.106;11.546;2023-05-10T02:49:43;13.00;99.90
27200;DHT22;14714;48.106;11.546;2023-05-10T02:52:10;13.00;99.90
27200;DHT22;14714;48.106;11.546;2023-05-10T02:54:45;13.00;99.90
27200;DHT22;14714;48.106;11.546;2023-05-10T02:57:16;13.00;99.90
27200;DHT22;14714;48.106;11.546;2023-05-10T02:59:45;13.00;99.90
27200;DHT22;14714;48.106;11.546;2023-05-10T03:02:13;13.00;99.90
27200;DHT22;14714;48.106;11.546;2023-05-10T03:04:39;13.00;99.90
27200;DHT22;14714;48.106;11.546;2023-05-10T03:07:07;13.00;99.90
27200;DHT22;14714;48.106;11.546;2023-05-10T03:09:34;13.00;99.90
27200;DHT22;14714;48.106;11.546;2023-05-10T03:12:14;13.00;99.90
27200;DHT22;14714;48.106;11.546;2023-05-10T03:18:07;13.00;99.90
27200;DHT22;14714;48.106;11.546;2023-05-10T03:20:41;13.00;99.90
27200;DHT22;14714;48.106;11.546;2023-05-10T03:25:46;12.90;99.90
27200;DHT22;14714;48.106;11.546;2023-05-10T03:28:15;13.00;99.90
27200;DHT22;14714;48.106;11.546;2023-05-10T03:30:43;12.90;99.90
27200;DHT22;14714;48.106;11.546;2023-05-10T03:33:11;13.00;99.90
27200;DHT22;14714;48.106;11.546;2023-05-10T03:35:39;13.00;99.90
27200;DHT22;14714;48.106;11.546;2023-05-10T03:38:06;13.00;99.90
27200;DHT22;14714;48.106;11.546;2023-05-10T03:40:33;13.00;99.90
27200;DHT22;14714;48.106;11.546;2023-05-10T03:42:59;13.00;99.90
27200;DHT22;14714;48.106;11.546;2023-05-10T03:45:26;13.00;99.90
27200;DHT22;14714;48.106;11.546;2023-05-10T03:47:53;13.00;99.90
27200;DHT22;14714;48.106;11.546;2023-05-10T03:50:20;13.00;99.90
27200;DHT22;14714;48.106;11.546;2023-05-10T03:52:47;12.90;99.90
27200;DHT22;14714;48.106;11.546;2023-05-10T03:55:14;12.90;99.90
27200;DHT22;14714;48.106;11.546;2023-05-10T03:57:41;12.90;99.90
27200;DHT22;14714;48.106;11.546;2023-05-10T04:00:09;12.90;99.90
27200;DHT22;14714;48.106;11.546;2023-05-10T04:02:36;12.90;99.90
27200;DHT22;14714;48.106;11.546;2023-05-10T04:05:04;13.00;99.90
27200;DHT22;14714;48.106;11.546;2023-05-10T04:07:31;13.00;99.90
27200;DHT22;14714;48.106;11.546;2023-05-10T04:09:57;13.00;99.90
27200;DHT22;14714;48.106;11.546;2023-05-10T04:12:24;13.00;99.90
27200;DHT22;14714;48.106;11.546;2023-05-10T04:14:51;13.10;99.90
27200;DHT22;14714;48.106;11.546;2023-05-10T04:17:18;13.10;99.90
27200;DHT22;14714;48.106;11.546;2023-05-10T04:19:45;13.10;99.90
27200;DHT22;14714;48.106;11.546;2023-05-10T04:22:11;13.10;99.90
27200;DHT22;14714;48.106;11.546;2023-05-10T04:24:38;13.20;99.90
27200;DHT22;14714;48.106;11.546;2023-05-10T04:27:05;13.20;99.90
27200;DHT22;14714;48.106;11.546;2023-05-10T04:29:31;13.20;99.90
27200;DHT22;14714;48.106;11.546;2023-05-10T04:31:58;13.20;99.90
27200;DHT22;14714;48.106;11.546;2023-05-10T04:34:25;13.20;99.90
27200;DHT22;14714;48.106;11.546;2023-05-10T04:36:52;13.20;99.90
27200;DHT22;14714;48.106;11.546;2023-05-10T04:39:18;13.30;99.90
27200;DHT22;14714;48.106;11.546;2023-05-10T04:41:45;13.30;99.90
27200;DHT22;14714;48.106;11.546;2023-05-10T04:44:12;13.30;99.90
27200;DHT22;14714;48.106;11.546;2023-05-10T04:46:39;13.30;99.90
27200;DHT22;14714;48.106;11.546;2023-05-10T04:49:06;13.30;99.90
27200;DHT22;14714;48.106;11.546;2023-05-10T04:51:32;13.30;99.90
27200;DHT22;14714;48.106;11.546;2023-05-10T04:53:59;13.30;99.90
27200;DHT22;14714;48.106;11.546;2023-05-10T04:56:32;13.30;99.90
27200;DHT22;14714;48.106;11.546;2023-05-10T04:58:59;13.30;99.90
27200;DHT22;14714;48.106;11.546;2023-05-10T05:01:26;13.30;99.90
27200;DHT22;14714;48.106;11.546;2023-05-10T05:03:52;13.20;99.90
27200;DHT22;14714;48.106;11.546;2023-05-10T05:06:20;13.30;99.90
27200;DHT22;14714;48.106;11.546;2023-05-10T05:08:47;13.30;99.90
27200;DHT22;14714;48.106;11.546;2023-05-10T05:11:16;13.20;99.90
27200;DHT22;14714;48.106;11.546;2023-05-10T05:13:43;13.20;99.90
27200;DHT22;14714;48.106;11.546;2023-05-10T05:16:10;13.20;99.90
27200;DHT22;14714;48.106;11.546;2023-05-10T05:18:38;13.10;99.90
27200;DHT22;14714;48.106;11.546;2023-05-10T05:21:18;13.10;99.90
27200;DHT22;14714;48.106;11.546;2023-05-10T05:23:45;13.00;99.90
27200;DHT22;14714;48.106;11.546;2023-05-10T05:26:12;13.00;99.90
27200;DHT22;14714;48.106;11.546;2023-05-10T05:28:39;13.00;99.90
27200;DHT22;14714;48.106;11.546;2023-05-10T05:31:06;13.00;99.90
27200;DHT22;14714;48.106;11.546;2023-05-10T05:33:37;13.00;99.90
27200;DHT22;14714;48.106;11.546;2023-05-10T05:36:04;12.90;99.90
27200;DHT22;14714;48.106;11.546;2023-05-10T05:38:32;12.90;99.90
27200;DHT22;14714;48.106;11.546;2023-05-10T05:40:58;12.90;99.90
27200;DHT22;14714;48.106;11.546;2023-05-10T05:43:25;12.80;99.90
27200;DHT22;14714;48.106;11.546;2023-05-10T05:45:53;12.80;99.90
27200;DHT22;14714;48.106;11.546;2023-05-10T05:48:24;12.70;99.90
27200;DHT22;14714;48.106;11.546;2023-05-10T05:50:54;12.70;99.90
27200;DHT22;14714;48.106;11.546;2023-05-10T05:53:23;12.60;99.90
27200;DHT22;14714;48.106;11.546;2023-05-10T05:55:57;12.60;99.90
27200;DHT22;14714;48.106;11.546;2023-05-10T05:58:25;12.50;99.90
27200;DHT22;14714;48.106;11.546;2023-05-10T06:00:52;12.50;99.90
27200;DHT22;14714;48.106;11.546;2023-05-10T06:03:19;12.50;99.90
27200;DHT22;14714;48.106;11.546;2023-05-10T06:05:46;12.60;99.90
27200;DHT22;14714;48.106;11.546;2023-05-10T06:08:13;12.60;99.90
27200;DHT22;14714;48.106;11.546;2023-05-10T06:10:40;12.60;99.90
27200;DHT22;14714;48.106;11.546;2023-05-10T06:13:06;12.70;99.90
27200;DHT22;14714;48.106;11.546;2023-05-10T06:15:33;12.70;99.90
27200;DHT22;14714;48.106;11.546;2023-05-10T06:18:01;12.80;99.90
27200;DHT22;14714;48.106;11.546;2023-05-10T06:20:28;12.80;99.90
27200;DHT22;14714;48.106;11.546;2023-05-10T06:22:54;12.80;99.90
27200;DHT22;14714;48.106;11.546;2023-05-10T06:25:21;12.90;99.90
27200;DHT22;14714;48.106;11.546;2023-05-10T06:27:48;13.00;99.90
27200;DHT22;14714;48.106;11.546;2023-05-10T06:30:19;13.00;99.90
27200;DHT22;14714;48.106;11.546;2023-05-10T06:32:46;13.10;99.90
27200;DHT22;14714;48.106;11.546;2023-05-10T06:35:13;13.20;99.90
27200;DHT22;14714;48.106;11.546;2023-05-10T06:37:40;13.30;99.90
27200;DHT22;14714;48.106;11.546;2023-05-10T06:40:07;13.50;99.90
27200;DHT22;14714;48.106;11.546;2023-05-10T06:42:34;13.70;99.90
27200;DHT22;14714;48.106;11.546;2023-05-10T06:45:01;13.80;99.90
27200;DHT22;14714;48.106;11.546;2023-05-10T06:47:28;14.00;99.90
27200;DHT22;14714;48.106;11.546;2023-05-10T06:49:55;14.30;99.90
27200;DHT22;14714;48.106;11.546;2023-05-10T06:52:22;14.50;99.90
27200;DHT22;14714;48.106;11.546;2023-05-10T06:54:49;14.80;99.90
27200;DHT22;14714;48.106;11.546;2023-05-10T06:57:17;15.00;99.90
27200;DHT22;14714;48.106;11.546;2023-05-10T06:59:57;15.30;99.90
27200;DHT22;14714;48.106;11.546;2023-05-10T07:02:24;15.60;99.90
27200;DHT22;14714;48.106;11.546;2023-05-10T07:04:51;15.90;99.90
27200;DHT22;14714;48.106;11.546;2023-05-10T07:07:18;16.10;99.90
27200;DHT22;14714;48.106;11.546;2023-05-10T07:09:45;16.20;99.90
27200;DHT22;14714;48.106;11.546;2023-05-10T07:12:12;16.30;99.90
27200;DHT22;14714;48.106;11.546;2023-05-10T07:14:41;16.40;99.90
27200;DHT22;14714;48.106;11.546;2023-05-10T07:17:08;16.50;99.90
27200;DHT22;14714;48.106;11.546;2023-05-10T07:19:35;16.50;99.90
27200;DHT22;14714;48.106;11.546;2023-05-10T07:22:02;16.50;99.90
27200;DHT22;14714;48.106;11.546;2023-05-10T07:24:29;16.70;99.90
27200;DHT22;14714;48.106;11.546;2023-05-10T07:26:57;17.00;99.90
27200;DHT22;14714;48.106;11.546;2023-05-10T07:29:24;17.20;99.90
27200;DHT22;14714;48.106;11.546;2023-05-10T07:31:51;17.40;99.90
27200;DHT22;14714;48.106;11.546;2023-05-10T07:34:18;17.60;99.90
27200;DHT22;14714;48.106;11.546;2023-05-10T07:36:45;17.60;99.90
27200;DHT22;14714;48.106;11.546;2023-05-10T07:39:11;17.70;99.90
27200;DHT22;14714;48.106;11.546;2023-05-10T07:41:50;17.90;99.90
27200;DHT22;14714;48.106;11.546;2023-05-10T07:44:16;18.50;99.90
27200;DHT22;14714;48.106;11.546;2023-05-10T07:46:46;19.20;99.90
27200;DHT22;14714;48.106;11.546;2023-05-10T07:49:13;20.00;99.90
27200;DHT22;14714;48.106;11.546;2023-05-10T07:51:40;20.50;99.90
27200;DHT22;14714;48.106;11.546;2023-05-10T07:54:07;20.90;99.90
27200;DHT22;14714;48.106;11.546;2023-05-10T07:56:34;21.40;99.90
27200;DHT22;14714;48.106;11.546;2023-05-10T07:59:02;21.60;99.90
27200;DHT22;14714;48.106;11.546;2023-05-10T08:01:35;21.60;99.90
27200;DHT22;14714;48.106;11.546;2023-05-10T08:04:02;21.80;99.90
27200;DHT22;14714;48.106;11.546;2023-05-10T08:06:29;22.00;99.90
27200;DHT22;14714;48.106;11.546;2023-05-10T08:08:56;22.20;99.90
27200;DHT22;14714;48.106;11.546;2023-05-10T08:11:23;22.20;99.90
27200;DHT22;14714;48.106;11.546;2023-05-10T08:13:51;22.00;99.90
27200;DHT22;14714;48.106;11.546;2023-05-10T08:16:18;21.90;99.90
27200;DHT22;14714;48.106;11.546;2023-05-10T08:18:45;21.70;99.90
27200;DHT22;14714;48.106;11.546;2023-05-10T08:21:14;21.40;99.90
27200;DHT22;14714;48.106;11.546;2023-05-10T08:23:41;21.00;99.90
27200;DHT22;14714;48.106;11.546;2023-05-10T08:26:07;20.60;99.90
27200;DHT22;14714;48.106;11.546;2023-05-10T08:28:34;20.20;99.90
27200;DHT22;14714;48.106;11.546;2023-05-10T08:31:01;19.80;99.90
27200;DHT22;14714;48.106;11.546;2023-05-10T08:33:28;19.50;99.90
27200;DHT22;14714;48.106;11.546;2023-05-10T08:35:55;19.00;99.90
27200;DHT22;14714;48.106;11.546;2023-05-10T08:38:21;18.40;99.90
27200;DHT22;14714;48.106;11.546;2023-05-10T08:40:49;18.00;99.90
27200;DHT22;14714;48.106;11.546;2023-05-10T08:43:21;17.60;99.90
27200;DHT22;14714;48.106;11.546;2023-05-10T08:45:50;17.30;99.90
27200;DHT22;14714;48.106;11.546;2023-05-10T08:48:18;17.10;99.90
27200;DHT22;14714;48.106;11.546;2023-05-10T08:50:46;17.00;99.90
27200;DHT22;14714;48.106;11.546;2023-05-10T08:53:15;16.90;99.90
27200;DHT22;14714;48.106;11.546;2023-05-10T08:55:42;16.90;99.90
27200;DHT22;14714;48.106;11.546;2023-05-10T08:58:10;16.80;99.90
27200;DHT22;14714;48.106;11.546;2023-05-10T09:00:36;16.70;99.90
27200;DHT22;14714;48.106;11.546;2023-05-10T09:03:05;16.50;99.90
27200;DHT22;14714;48.106;11.546;2023-05-10T09:05:32;16.40;99.90
27200;DHT22;14714;48.106;11.546;2023-05-10T09:07:59;16.30;99.90
27200;DHT22;14714;48.106;11.546;2023-05-10T09:10:29;16.30;99.90
27200;DHT22;14714;48.106;11.546;2023-05-10T09:12:57;16.50;99.90
27200;DHT22;14714;48.106;11.546;2023-05-10T09:15:25;16.70;99.90
27200;DHT22;14714;48.106;11.546;2023-05-10T09:17:52;16.90;99.90
27200;DHT22;14714;48.106;11.546;2023-05-10T09:20:19;17.10;99.90
27200;DHT22;14714;48.106;11.546;2023-05-10T09:22:46;17.10;99.90
27200;DHT22;14714;48.106;11.546;2023-05-10T09:25:15;17.00;99.90
27200;DHT22;14714;48.106;11.546;2023-05-10T09:27:47;16.90;99.90
27200;DHT22;14714;48.106;11.546;2023-05-10T09:30:27;16.80;99.90
27200;DHT22;14714;48.106;11.546;2023-05-10T09:32:54;16.60;99.90
27200;DHT22;14714;48.106;11.546;2023-05-10T09:35:23;16.50;99.90
27200;DHT22;14714;48.106;11.546;2023-05-10T09:37:57;16.40;99.90
27200;DHT22;14714;48.106;11.546;2023-05-10T09:40:25;16.60;99.90
27200;DHT22;14714;48.106;11.546;2023-05-10T09:42:58;17.00;99.90
27200;DHT22;14714;48.106;11.546;2023-05-10T09:45:27;17.40;99.90
27200;DHT22;14714;48.106;11.546;2023-05-10T09:47:55;17.80;99.90
27200;DHT22;14714;48.106;11.546;2023-05-10T09:50:22;18.10;99.90
27200;DHT22;14714;48.106;11.546;2023-05-10T09:55:39;18.20;99.90
27200;DHT22;14714;48.106;11.546;2023-05-10T09:58:07;18.40;99.90
27200;DHT22;14714;48.106;11.546;2023-05-10T10:00:39;18.50;99.90
27200;DHT22;14714;48.106;11.546;2023-05-10T10:03:11;18.70;99.90
27200;DHT22;14714;48.106;11.546;2023-05-10T10:05:40;19.00;99.90
27200;DHT22;14714;48.106;11.546;2023-05-10T10:08:08;19.60;99.90
27200;DHT22;14714;48.106;11.546;2023-05-10T10:10:35;20.30;99.90
27200;DHT22;14714;48.106;11.546;2023-05-10T10:13:02;21.10;99.90
27200;DHT22;14714;48.106;11.546;2023-05-10T10:15:29;21.50;99.90
27200;DHT22;14714;48.106;11.546;2023-05-10T10:17:56;21.60;99.90
27200;DHT22;14714;48.106;11.546;2023-05-10T10:20:23;21.50;99.90
27200;DHT22;14714;48.106;11.546;2023-05-10T10:22:50;21.30;99.60
27200;DHT22;14714;48.106;11.546;2023-05-10T10:25:19;21.00;99.90
27200;DHT22;14714;48.106;11.546;2023-05-10T10:30:43;20.70;99.30
27200;DHT22;14714;48.106;11.546;2023-05-10T10:35:55;21.00;99.90
27200;DHT22;14714;48.106;11.546;2023-05-10T10:38:24;21.30;99.30
27200;DHT22;14714;48.106;11.546;2023-05-10T10:41:09;21.70;98.50
27200;DHT22;14714;48.106;11.546;2023-05-10T10:43:36;22.00;97.10
27200;DHT22;14714;48.106;11.546;2023-05-10T10:46:16;22.40;97.40
27200;DHT22;14714;48.106;11.546;2023-05-10T10:51:38;22.90;93.20
27200;DHT22;14714;48.106;11.546;2023-05-10T10:54:11;22.70;92.80
27200;DHT22;14714;48.106;11.546;2023-05-10T10:56:38;22.40;92.30
27200;DHT22;14714;48.106;11.546;2023-05-10T10:59:05;21.90;91.60
27200;DHT22;14714;48.106;11.546;2023-05-10T11:01:35;21.50;92.30
27200;DHT22;14714;48.106;11.546;2023-05-10T11:06:36;20.10;99.90
27200;DHT22;14714;48.106;11.546;2023-05-10T11:09:10;19.30;99.90
27200;DHT22;14714;48.106;11.546;2023-05-10T11:11:58;18.70;99.90
27200;DHT22;14714;48.106;11.546;2023-05-10T11:14:26;18.00;99.90
27200;DHT22;14714;48.106;11.546;2023-05-10T11:16:53;17.50;99.90
27200;DHT22;14714;48.106;11.546;2023-05-10T11:19:20;17.20;99.90
27200;DHT22;14714;48.106;11.546;2023-05-10T11:21:51;16.90;99.90
27200;DHT22;14714;48.106;11.546;2023-05-10T11:24:22;16.70;99.90
27200;DHT22;14714;48.106;11.546;2023-05-10T11:26:50;16.50;99.90
27200;DHT22;14714;48.106;11.546;2023-05-10T11:29:18;16.30;99.90
27200;DHT22;14714;48.106;11.546;2023-05-10T11:31:45;16.20;99.90
27200;DHT22;14714;48.106;11.546;2023-05-10T11:34:29;16.10;99.90
27200;DHT22;14714;48.106;11.546;2023-05-10T11:36:57;15.90;99.90
27200;DHT22;14714;48.106;11.546;2023-05-10T11:39:29;15.60;99.90
27200;DHT22;14714;48.106;11.546;2023-05-10T11:41:57;15.40;99.90
27200;DHT22;14714;48.106;11.546;2023-05-10T11:44:29;15.10;99.90
27200;DHT22;14714;48.106;11.546;2023-05-10T11:46:59;14.90;99.90
27200;DHT22;14714;48.106;11.546;2023-05-10T11:49:26;14.70;99.90
27200;DHT22;14714;48.106;11.546;2023-05-10T11:51:53;14.50;99.90
27200;DHT22;14714;48.106;11.546;2023-05-10T11:54:29;14.30;99.90
27200;DHT22;14714;48.106;11.546;2023-05-10T11:56:57;14.10;99.90
27200;DHT22;14714;48.106;11.546;2023-05-10T11:59:25;14.00;99.90
27200;DHT22;14714;48.106;11.546;2023-05-10T12:01:52;13.90;99.90
27200;DHT22;14714;48.106;11.546;2023-05-10T12:04:19;13.80;99.90
27200;DHT22;14714;48.106;11.546;2023-05-10T12:06:46;13.70;99.90
27200;DHT22;14714;48.106;11.546;2023-05-10T12:09:14;13.60;99.90
27200;DHT22;14714;48.106;11.546;2023-05-10T12:11:41;13.60;99.90
27200;DHT22;14714;48.106;11.546;2023-05-10T12:14:10;13.60;99.90
27200;DHT22;14714;48.106;11.546;2023-05-10T12:16:37;13.60;99.90
27200;DHT22;14714;48.106;11.546;2023-05-10T12:19:04;13.70;99.90
27200;DHT22;14714;48.106;11.546;2023-05-10T12:21:32;13.80;99.90
27200;DHT22;14714;48.106;11.546;2023-05-10T12:24:02;13.80;99.90
27200;DHT22;14714;48.106;11.546;2023-05-10T12:26:29;13.90;99.90
27200;DHT22;14714;48.106;11.546;2023-05-10T12:29:15;14.00;99.90
27200;DHT22;14714;48.106;11.546;2023-05-10T12:36:53;14.00;99.90
27200;DHT22;14714;48.106;11.546;2023-05-10T12:39:19;14.10;99.90
27200;DHT22;14714;48.106;11.546;2023-05-10T12:41:46;14.10;99.90
27200;DHT22;14714;48.106;11.546;2023-05-10T12:44:13;14.20;99.90
27200;DHT22;14714;48.106;11.546;2023-05-10T12:46:40;14.30;99.90
27200;DHT22;14714;48.106;11.546;2023-05-10T12:49:06;14.40;99.90
27200;DHT22;14714;48.106;11.546;2023-05-10T12:51:35;14.50;99.90
27200;DHT22;14714;48.106;11.546;2023-05-10T12:54:02;14.50;99.90
27200;DHT22;14714;48.106;11.546;2023-05-10T12:56:29;14.50;99.90
27200;DHT22;14714;48.106;11.546;2023-05-10T12:58:56;14.50;99.90
27200;DHT22;14714;48.106;11.546;2023-05-10T13:01:23;14.50;99.90
27200;DHT22;14714;48.106;11.546;2023-05-10T13:03:50;14.60;99.90
27200;DHT22;14714;48.106;11.546;2023-05-10T13:06:17;14.60;99.90
27200;DHT22;14714;48.106;11.546;2023-05-10T13:08:43;14.60;99.90
27200;DHT22;14714;48.106;11.546;2023-05-10T13:11:10;14.60;99.90
27200;DHT22;14714;48.106;11.546;2023-05-10T13:13:37;14.60;99.90
27200;DHT22;14714;48.106;11.546;2023-05-10T13:16:04;14.60;99.90
27200;DHT22;14714;48.106;11.546;2023-05-10T13:18:31;14.60;99.90
27200;DHT22;14714;48.106;11.546;2023-05-10T13:20:58;14.60;99.90
27200;DHT22;14714;48.106;11.546;2023-05-10T13:23:25;14.70;99.90
27200;DHT22;14714;48.106;11.546;2023-05-10T13:25:51;14.60;99.90
27200;DHT22;14714;48.106;11.546;2023-05-10T13:28:18;14.60;99.90
27200;DHT22;14714;48.106;11.546;2023-05-10T13:30:45;14.60;99.90
27200;DHT22;14714;48.106;11.546;2023-05-10T13:33:12;14.60;99.90
27200;DHT22;14714;48.106;11.546;2023-05-10T13:35:38;14.60;99.90
27200;DHT22;14714;48.106;11.546;2023-05-10T13:38:05;14.60;99.90
27200;DHT22;14714;48.106;11.546;2023-05-10T13:40:34;14.50;99.90
27200;DHT22;14714;48.106;11.546;2023-05-10T13:43:02;14.40;99.90
27200;DHT22;14714;48.106;11.546;2023-05-10T13:45:29;14.40;99.90
27200;DHT22;14714;48.106;11.546;2023-05-10T13:47:55;14.30;99.90
27200;DHT22;14714;48.106;11.546;2023-05-10T13:50:22;14.20;99.90
27200;DHT22;14714;48.106;11.546;2023-05-10T13:52:49;14.10;99.90
27200;DHT22;14714;48.106;11.546;2023-05-10T13:55:16;14.10;99.90
27200;DHT22;14714;48.106;11.546;2023-05-10T13:57:43;14.10;99.90
27200;DHT22;14714;48.106;11.546;2023-05-10T14:00:10;14.10;99.90
27200;DHT22;14714;48.106;11.546;2023-05-10T14:02:37;14.00;99.90
27200;DHT22;14714;48.106;11.546;2023-05-10T14:05:04;14.00;99.90
27200;DHT22;14714;48.106;11.546;2023-05-10T14:07:31;14.00;99.90
27200;DHT22;14714;48.106;11.546;2023-05-10T14:09:58;14.10;99.90
27200;DHT22;14714;48.106;11.546;2023-05-10T14:12:25;14.20;99.90
27200;DHT22;14714;48.106;11.546;2023-05-10T14:14:52;14.20;99.90
27200;DHT22;14714;48.106;11.546;2023-05-10T14:17:18;14.20;99.90
27200;DHT22;14714;48.106;11.546;2023-05-10T14:19:45;14.20;99.90
27200;DHT22;14714;48.106;11.546;2023-05-10T14:22:12;14.30;99.90
27200;DHT22;14714;48.106;11.546;2023-05-10T14:24:39;14.30;99.90
27200;DHT22;14714;48.106;11.546;2023-05-10T14:27:05;14.40;99.90
27200;DHT22;14714;48.106;11.546;2023-05-10T14:29:32;14.40;99.90
27200;DHT22;14714;48.106;11.546;2023-05-10T14:31:59;14.40;99.90
27200;DHT22;14714;48.106;11.546;2023-05-10T14:34:26;14.40;99.90
27200;DHT22;14714;48.106;11.546;2023-05-10T14:36:53;14.40;99.90
27200;DHT22;14714;48.106;11.546;2023-05-10T14:39:19;14.50;99.90
27200;DHT22;14714;48.106;11.546;2023-05-10T14:41:46;14.50;99.90
27200;DHT22;14714;48.106;11.546;2023-05-10T14:44:13;14.50;99.90
27200;DHT22;14714;48.106;11.546;2023-05-10T14:46:41;14.50;99.90
27200;DHT22;14714;48.106;11.546;2023-05-10T14:49:08;14.50;99.90
27200;DHT22;14714;48.106;11.546;2023-05-10T14:51:35;14.60;99.90
27200;DHT22;14714;48.106;11.546;2023-05-10T14:54:03;14.60;99.90
27200;DHT22;14714;48.106;11.546;2023-05-10T14:56:30;14.50;99.90
27200;DHT22;14714;48.106;11.546;2023-05-10T14:58:56;14.40;99.90
27200;DHT22;14714;48.106;11.546;2023-05-10T15:01:24;14.30;99.90
27200;DHT22;14714;48.106;11.546;2023-05-10T15:03:51;14.20;99.90
27200;DHT22;14714;48.106;11.546;2023-05-10T15:06:23;14.20;99.90
27200;DHT22;14714;48.106;11.546;2023-05-10T15:08:51;14.10;99.90
27200;DHT22;14714;48.106;11.546;2023-05-10T15:11:18;14.00;99.90
27200;DHT22;14714;48.106;11.546;2023-05-10T15:13:45;14.00;99.90
27200;DHT22;14714;48.106;11.546;2023-05-10T15:16:11;13.90;99.90
27200;DHT22;14714;48.106;11.546;2023-05-10T15:18:38;13.90;99.90
27200;DHT22;14714;48.106;11.546;2023-05-10T15:21:05;13.80;99.90
27200;DHT22;14714;48.106;11.546;2023-05-10T15:23:32;13.80;99.90
27200;DHT22;14714;48.106;11.546;2023-05-10T15:25:59;13.80;99.90
27200;DHT22;14714;48.106;11.546;2023-05-10T15:28:26;13.80;99.90
27200;DHT22;14714;48.106;11.546;2023-05-10T15:30:53;13.80;99.90
27200;DHT22;14714;48.106;11.546;2023-05-10T15:33:19;13.70;99.90
27200;DHT22;14714;48.106;11.546;2023-05-10T15:35:46;13.70;99.90
27200;DHT22;14714;48.106;11.546;2023-05-10T15:38:13;13.60;99.90
27200;DHT22;14714;48.106;11.546;2023-05-10T15:40:40;13.60;99.90
27200;DHT22;14714;48.106;11.546;2023-05-10T15:43:07;13.50;99.90
27200;DHT22;14714;48.106;11.546;2023-05-10T15:45:34;13.50;99.90
27200;DHT22;14714;48.106;11.546;2023-05-10T15:48:03;13.40;99.90
27200;DHT22;14714;48.106;11.546;2023-05-10T15:50:30;13.30;99.90
27200;DHT22;14714;48.106;11.546;2023-05-10T15:52:57;13.30;99.90
27200;DHT22;14714;48.106;11.546;2023-05-10T15:55:23;13.20;99.90
27200;DHT22;14714;48.106;11.546;2023-05-10T15:57:50;13.20;99.90
27200;DHT22;14714;48.106;11.546;2023-05-10T16:00:17;13.20;99.90
27200;DHT22;14714;48.106;11.546;2023-05-10T16:02:44;13.10;99.90
27200;DHT22;14714;48.106;11.546;2023-05-10T16:05:12;13.00;99.90
27200;DHT22;14714;48.106;11.546;2023-05-10T16:07:39;12.90;99.90